createdAt,value
2022-11-22T00:09:48.667Z,0.37
2022-11-22T00:15:05.810Z,0.00
2022-11-22T00:24:23.484Z,0.00
2022-11-22T00:26:58.820Z,0.10
2022-11-22T01:16:04.878Z,0.00
2022-11-22T01:18:32.394Z,0.10
2022-11-22T01:21:00.129Z,0.10
2022-11-22T01:23:27.553Z,0.10
2022-11-22T01:25:54.914Z,0.10
2022-11-22T01:28:22.400Z,0.30
2022-11-22T01:30:52.999Z,0.00
2022-11-22T01:33:22.346Z,0.00
2022-11-22T01:35:50.042Z,0.00
2022-11-22T01:38:17.614Z,0.00
2022-11-22T01:40:45.052Z,0.10
2022-11-22T01:43:21.097Z,0.00
2022-11-22T01:45:55.440Z,0.00
2022-11-22T01:48:38.267Z,0.00
2022-11-22T01:58:07.432Z,0.20
2022-11-22T02:00:37.841Z,0.00
2022-11-22T02:03:06.258Z,0.00
2022-11-22T02:05:42.174Z,0.00
2022-11-22T02:08:57.806Z,0.00
2022-11-22T02:11:30.983Z,0.00
2022-11-22T02:14:01.683Z,0.10
2022-11-22T02:16:29.202Z,0.20
2022-11-22T02:18:56.671Z,0.00
2022-11-22T02:21:24.258Z,0.20
2022-11-22T02:23:56.694Z,0.00
2022-11-22T02:29:48.198Z,0.00
2022-11-22T02:32:18.165Z,0.00
2022-11-22T02:38:10.945Z,0.00
2022-11-22T02:45:26.765Z,0.00
2022-11-22T02:57:33.450Z,0.00
2022-11-22T03:00:00.881Z,0.00
2022-11-22T03:02:29.727Z,0.10
2022-11-22T03:04:57.434Z,0.10
2022-11-22T03:07:24.839Z,0.00
2022-11-22T03:09:52.157Z,0.00
2022-11-22T03:12:21.647Z,0.00
2022-11-22T03:14:50.319Z,0.00
2022-11-22T03:17:33.671Z,0.00
2022-11-22T03:20:07.126Z,0.00
2022-11-22T03:22:34.674Z,0.00
2022-11-22T03:25:05.036Z,0.00
2022-11-22T03:27:32.594Z,0.00
2022-11-22T03:30:02.646Z,0.10
2022-11-22T03:32:30.154Z,0.00
2022-11-22T03:34:57.671Z,0.00
2022-11-22T03:37:26.321Z,0.00
2022-11-22T03:39:53.902Z,0.00
2022-11-22T03:42:22.090Z,0.10
2022-11-22T03:44:50.861Z,0.13
2022-11-22T03:47:20.769Z,0.10
2022-11-22T03:49:48.454Z,0.00
2022-11-22T03:55:49.713Z,0.00
2022-11-22T03:58:17.164Z,0.10
2022-11-22T04:00:46.641Z,0.13
2022-11-22T04:03:14.239Z,0.00
2022-11-22T04:05:41.827Z,0.00
2022-11-22T04:08:12.479Z,0.00
2022-11-22T04:10:42.422Z,0.00
2022-11-22T04:13:10.095Z,0.00
2022-11-22T04:15:37.485Z,0.27
2022-11-22T04:18:07.428Z,0.00
2022-11-22T05:05:56.891Z,0.00
2022-11-22T05:08:24.884Z,0.00
2022-11-22T05:29:50.119Z,0.00
2022-11-22T05:32:21.515Z,0.00
2022-11-22T05:34:50.870Z,0.03
2022-11-22T05:55:31.510Z,0.00
2022-11-22T05:58:02.468Z,0.00
2022-11-22T06:00:30.094Z,0.17
2022-11-22T06:03:02.666Z,0.00
2022-11-22T06:05:30.283Z,0.00
2022-11-22T06:08:02.853Z,0.00
2022-11-22T06:10:30.416Z,0.00
2022-11-22T06:12:59.936Z,0.00
2022-11-22T06:15:27.454Z,0.00
2022-11-22T06:17:59.661Z,0.00
2022-11-22T06:20:27.067Z,0.00
2022-11-22T06:22:54.629Z,0.00
2022-11-22T06:25:24.460Z,0.00
2022-11-22T06:27:52.174Z,0.00
2022-11-22T06:30:24.442Z,0.00
2022-11-22T06:32:52.953Z,0.00
2022-11-22T06:35:31.822Z,0.10
2022-11-22T06:38:00.987Z,0.00
2022-11-22T06:40:34.680Z,0.00
2022-11-22T06:43:04.518Z,0.00
2022-11-22T06:45:32.075Z,0.00
2022-11-22T06:47:59.598Z,0.00
2022-11-22T06:50:31.680Z,0.00
2022-11-22T06:52:58.962Z,0.00
2022-11-22T06:55:49.481Z,0.00
2022-11-22T06:58:20.315Z,0.10
2022-11-22T07:01:12.345Z,0.00
2022-11-22T07:03:50.318Z,0.00
2022-11-22T07:06:29.671Z,0.00
2022-11-22T07:09:21.028Z,0.00
2022-11-22T07:11:56.372Z,0.00
2022-11-22T07:14:23.886Z,0.00
2022-11-22T07:16:51.299Z,0.00
2022-11-22T07:19:18.924Z,0.10
2022-11-22T07:21:46.287Z,0.00
2022-11-22T07:24:14.430Z,0.00
2022-11-22T07:26:44.848Z,0.00
2022-11-22T07:29:12.921Z,0.00
2022-11-22T07:31:40.414Z,0.00
2022-11-22T07:34:08.170Z,0.10
2022-11-22T07:36:35.859Z,0.00
2022-11-22T07:39:03.800Z,0.10
2022-11-22T07:41:31.363Z,0.00
2022-11-22T07:44:03.164Z,0.00
2022-11-22T07:46:31.897Z,0.00
2022-11-22T07:49:02.730Z,0.00
2022-11-22T07:51:30.420Z,0.00
2022-11-22T07:53:58.168Z,0.10
2022-11-22T07:56:25.604Z,0.00
2022-11-22T07:58:53.216Z,0.00
2022-11-22T08:01:22.692Z,0.00
2022-11-22T08:03:50.227Z,0.00
2022-11-22T08:06:17.563Z,0.00
2022-11-22T08:08:47.931Z,0.00
2022-11-22T08:11:15.347Z,0.07
2022-11-22T08:13:48.497Z,0.00
2022-11-22T08:16:19.514Z,0.00
2022-11-22T08:18:50.470Z,0.00
2022-11-22T08:21:23.149Z,0.00
2022-11-22T08:30:18.173Z,0.00
2022-11-22T08:32:46.400Z,0.00
2022-11-22T08:35:17.144Z,0.00
2022-11-22T08:37:44.684Z,0.00
2022-11-22T08:40:12.383Z,0.10
2022-11-22T08:42:39.762Z,0.23
2022-11-22T08:45:11.013Z,0.00
2022-11-22T08:47:38.529Z,0.20
2022-11-22T08:50:06.937Z,0.03
2022-11-22T08:52:34.986Z,0.00
2022-11-22T08:55:02.489Z,0.00
2022-11-22T08:57:32.525Z,0.00
2022-11-22T08:59:59.914Z,0.00
2022-11-22T09:02:27.277Z,0.00
2022-11-22T09:04:58.974Z,0.00
2022-11-22T09:10:13.843Z,0.00
2022-11-22T09:12:44.809Z,0.10
2022-11-22T09:15:12.307Z,0.00
2022-11-22T09:17:42.478Z,0.00
2022-11-22T09:20:10.283Z,0.00
2022-11-22T09:22:37.643Z,0.00
2022-11-22T09:25:05.553Z,0.10
2022-11-22T09:27:35.583Z,0.00
2022-11-22T09:30:02.666Z,0.00
2022-11-22T09:32:33.697Z,0.05
2022-11-22T09:35:01.005Z,0.00
2022-11-22T09:37:28.033Z,0.10
2022-11-22T09:39:55.086Z,0.10
2022-11-22T09:42:53.093Z,0.00
2022-11-22T09:45:37.475Z,0.00
2022-11-22T09:48:22.874Z,0.00
2022-11-22T09:51:13.026Z,0.00
2022-11-22T09:54:00.013Z,0.00
2022-11-22T09:56:27.738Z,0.00
2022-11-22T09:59:01.103Z,0.00
2022-11-22T10:01:46.028Z,0.00
2022-11-22T10:04:13.004Z,0.03
2022-11-22T10:06:48.754Z,0.00
2022-11-22T10:09:18.481Z,0.20
2022-11-22T10:12:08.603Z,0.00
2022-11-22T10:14:38.797Z,0.00
2022-11-22T10:17:22.045Z,0.00
2022-11-22T10:19:52.008Z,0.00
2022-11-22T10:22:19.283Z,0.00
2022-11-22T10:24:46.177Z,0.00
2022-11-22T10:27:16.204Z,0.10
2022-11-22T10:30:05.528Z,0.17
2022-11-22T10:32:39.324Z,0.00
2022-11-22T10:35:12.409Z,0.00
2022-11-22T10:37:48.225Z,0.00
2022-11-22T10:40:52.947Z,0.03
2022-11-22T10:43:27.698Z,0.00
2022-11-22T10:46:21.810Z,0.00
2022-11-22T10:49:00.880Z,0.00
2022-11-22T10:51:37.576Z,0.00
2022-11-22T10:54:19.158Z,0.10
2022-11-22T10:57:04.374Z,0.00
2022-11-22T10:59:47.032Z,0.00
2022-11-22T11:02:36.241Z,0.00
2022-11-22T11:05:05.575Z,0.00
2022-11-22T11:07:32.923Z,0.00
2022-11-22T11:10:12.772Z,0.00
2022-11-22T11:12:51.776Z,0.00
2022-11-22T11:15:44.788Z,0.00
2022-11-22T11:18:25.440Z,0.20
2022-11-22T11:20:53.865Z,0.00
2022-11-22T11:23:22.214Z,0.00
2022-11-22T11:25:52.286Z,0.00
2022-11-22T11:28:23.895Z,0.10
2022-11-22T11:30:52.617Z,0.20
2022-11-22T11:33:34.850Z,0.00
2022-11-22T11:36:06.998Z,0.10
2022-11-22T11:38:42.759Z,0.10
2022-11-22T11:41:20.777Z,0.15
2022-11-22T11:43:47.854Z,0.00
2022-11-22T11:46:22.843Z,0.10
2022-11-22T11:48:54.243Z,0.00
2022-11-22T11:51:40.643Z,0.03
2022-11-22T11:54:20.350Z,0.00
2022-11-22T11:56:52.513Z,0.00
2022-11-22T11:59:20.930Z,0.00
2022-11-22T12:01:59.345Z,0.00
2022-11-22T12:04:28.874Z,0.00
2022-11-22T12:07:03.091Z,0.05
2022-11-22T12:09:33.072Z,0.00
2022-11-22T12:12:05.880Z,0.00
2022-11-22T12:15:03.362Z,0.00
2022-11-22T12:17:26.182Z,0.10
2022-11-22T12:20:04.982Z,0.00
2022-11-22T12:22:49.400Z,0.20
2022-11-22T12:25:32.231Z,0.10
2022-11-22T12:28:03.589Z,0.00
2022-11-22T12:30:30.678Z,0.10
2022-11-22T12:33:04.490Z,0.08
2022-11-22T12:35:35.335Z,0.10
2022-11-22T12:38:24.096Z,0.00
2022-11-22T12:40:55.260Z,0.03
2022-11-22T12:43:24.338Z,0.17
2022-11-22T12:45:53.249Z,0.28
2022-11-22T12:48:26.445Z,0.10
2022-11-22T12:50:54.330Z,0.10
2022-11-22T12:53:41.782Z,0.10
2022-11-22T12:56:31.424Z,0.15
2022-11-22T12:59:12.101Z,0.00
2022-11-22T13:01:46.883Z,0.10
2022-11-22T13:04:21.890Z,0.00
2022-11-22T13:06:51.944Z,0.00
2022-11-22T13:09:33.585Z,0.10
2022-11-22T13:12:04.368Z,0.10
2022-11-22T13:14:43.673Z,0.00
2022-11-22T13:17:12.168Z,0.00
2022-11-22T13:19:54.101Z,0.10
2022-11-22T13:22:50.381Z,0.00
2022-11-22T13:25:38.329Z,0.00
2022-11-22T13:28:19.017Z,0.20
2022-11-22T13:31:13.880Z,0.10
2022-11-22T13:33:55.638Z,0.00
2022-11-22T13:36:32.176Z,0.00
2022-11-22T13:39:20.124Z,0.00
2022-11-22T13:41:59.510Z,0.10
2022-11-22T13:44:28.477Z,0.00
2022-11-22T13:50:51.387Z,0.00
2022-11-22T13:53:26.965Z,0.00
2022-11-22T13:55:54.392Z,0.00
2022-11-22T13:58:24.504Z,0.00
2022-11-22T14:00:55.821Z,0.10
2022-11-22T14:03:24.622Z,0.10
2022-11-22T14:05:52.191Z,0.10
2022-11-22T14:08:33.043Z,0.00
2022-11-22T14:11:03.788Z,0.00
2022-11-22T14:13:48.156Z,0.20
2022-11-22T14:16:45.577Z,0.00
2022-11-22T14:19:56.373Z,0.35
2022-11-22T14:22:42.051Z,0.10
2022-11-22T14:25:29.075Z,0.10
2022-11-22T14:29:04.983Z,0.20
2022-11-22T14:31:33.509Z,0.10
2022-11-22T14:34:19.403Z,0.00
2022-11-22T14:37:06.831Z,0.15
2022-11-22T14:39:53.211Z,0.00
2022-11-22T14:42:39.575Z,0.08
2022-11-22T14:45:12.002Z,0.20
2022-11-22T14:47:43.125Z,0.20
2022-11-22T14:50:33.049Z,1.42
2022-11-22T14:53:09.977Z,0.45
2022-11-22T14:55:36.953Z,0.30
2022-11-22T14:58:08.213Z,0.10
2022-11-22T15:00:37.911Z,0.10
2022-11-22T15:03:26.307Z,0.00
2022-11-22T15:09:18.787Z,0.00
2022-11-22T15:12:19.849Z,0.00
2022-11-22T15:57:36.006Z,0.10
2022-11-22T16:00:09.482Z,0.17
2022-11-22T16:02:38.552Z,0.10
2022-11-22T16:06:10.272Z,0.10
2022-11-22T16:07:53.867Z,0.10
2022-11-22T16:10:22.831Z,0.20
2022-11-22T16:12:50.531Z,0.10
2022-11-22T16:15:37.015Z,0.13
2022-11-22T16:18:18.065Z,0.10
2022-11-22T16:21:16.928Z,0.10
2022-11-22T16:23:45.387Z,0.32
2022-11-22T16:26:24.824Z,0.20
2022-11-22T16:28:53.232Z,0.45
2022-11-22T16:31:25.670Z,0.20
2022-11-22T16:33:53.517Z,0.20
2022-11-22T16:36:21.624Z,0.20
2022-11-22T16:38:48.809Z,0.10
2022-11-22T16:41:25.657Z,0.10
2022-11-22T16:43:54.739Z,0.20
2022-11-22T16:46:21.951Z,0.05
2022-11-22T16:48:49.141Z,0.17
2022-11-22T16:51:20.208Z,0.30
2022-11-22T16:53:48.705Z,0.30
2022-11-22T16:56:23.240Z,0.10
2022-11-22T16:58:55.157Z,0.10
2022-11-22T17:01:24.607Z,0.08
2022-11-22T17:03:54.052Z,0.10
2022-11-22T17:06:25.742Z,0.10
2022-11-22T17:08:54.915Z,0.10
2022-11-22T17:11:27.273Z,0.20
2022-11-22T17:13:54.679Z,0.20
2022-11-22T17:16:22.052Z,0.17
2022-11-22T17:18:49.352Z,0.20
2022-11-22T17:21:23.250Z,0.10
2022-11-22T17:23:50.583Z,0.22
2022-11-22T17:26:18.079Z,0.20
2022-11-22T17:28:45.685Z,0.30
2022-11-22T17:31:13.823Z,0.30
2022-11-22T17:33:44.133Z,0.30
2022-11-22T17:36:22.486Z,0.75
2022-11-22T17:38:50.073Z,0.40
2022-11-22T17:41:50.259Z,0.40
2022-11-22T17:44:18.076Z,0.30
2022-11-22T17:46:47.115Z,0.50
2022-11-22T17:49:17.378Z,0.40
2022-11-22T17:51:44.639Z,0.30
2022-11-22T17:54:11.879Z,0.30
2022-11-22T17:56:42.402Z,0.50
2022-11-22T17:59:09.645Z,0.28
2022-11-22T18:01:37.067Z,0.40
2022-11-22T18:04:05.488Z,0.50
2022-11-22T18:06:32.787Z,0.43
2022-11-22T18:09:00.997Z,0.65
2022-11-22T18:11:28.294Z,0.32
2022-11-22T18:13:55.971Z,0.40
2022-11-22T18:16:28.360Z,0.80
2022-11-22T18:18:57.807Z,0.47
2022-11-22T18:21:29.859Z,0.40
2022-11-22T18:23:59.092Z,0.98
2022-11-22T18:26:42.840Z,0.45
2022-11-22T18:32:00.400Z,0.73
2022-11-22T18:34:28.051Z,0.50
2022-11-22T18:37:00.261Z,0.73
2022-11-22T18:39:30.063Z,0.43
2022-11-22T18:41:57.897Z,0.57
2022-11-22T18:44:27.987Z,0.63
2022-11-22T18:46:55.456Z,1.33
2022-11-22T18:49:22.804Z,0.70
2022-11-22T18:51:50.171Z,1.17
2022-11-22T18:54:18.554Z,0.50
2022-11-22T18:56:46.023Z,1.00
2022-11-22T18:59:13.487Z,0.70
2022-11-22T19:01:43.886Z,0.70
2022-11-22T19:04:13.991Z,0.95
2022-11-22T19:06:45.999Z,0.95
2022-11-22T19:09:13.450Z,0.52
2022-11-22T19:11:40.959Z,0.82
2022-11-22T19:14:08.472Z,0.52
2022-11-22T19:16:35.996Z,0.70
2022-11-22T19:19:03.795Z,0.90
2022-11-22T19:21:31.172Z,1.10
2022-11-22T19:23:58.571Z,0.77
2022-11-22T19:26:27.164Z,0.80
2022-11-22T19:28:56.506Z,1.00
2022-11-22T19:31:29.079Z,0.47
2022-11-22T19:33:56.709Z,0.67
2022-11-22T19:36:32.119Z,1.00
2022-11-22T19:39:02.286Z,1.20
2022-11-22T19:41:30.977Z,1.03
2022-11-22T19:43:58.575Z,0.60
2022-11-22T19:46:59.578Z,0.80
2022-11-22T19:49:27.651Z,0.52
2022-11-22T19:51:55.159Z,1.23
2022-11-22T19:54:23.949Z,1.13
2022-11-22T19:56:51.463Z,0.67
2022-11-22T19:59:21.751Z,1.23
2022-11-22T20:01:54.963Z,0.65
2022-11-22T20:04:22.350Z,1.57
2022-11-22T20:06:50.515Z,0.90
2022-11-22T20:09:24.287Z,0.87
2022-11-22T20:12:04.105Z,1.03
2022-11-22T20:14:32.680Z,1.00
2022-11-22T20:17:02.719Z,1.17
2022-11-22T20:19:34.265Z,0.60
2022-11-22T20:22:04.710Z,1.00
2022-11-22T20:24:34.639Z,1.00
2022-11-22T20:27:04.889Z,1.00
2022-11-22T20:29:33.966Z,1.40
2022-11-22T20:32:01.759Z,1.33
2022-11-22T20:34:37.778Z,1.67
2022-11-22T20:37:07.203Z,1.05
2022-11-22T20:39:37.144Z,1.40
2022-11-22T20:42:33.108Z,1.67
2022-11-22T20:44:58.270Z,1.57
2022-11-22T20:47:25.773Z,1.60
2022-11-22T20:49:53.272Z,1.57
2022-11-22T20:52:27.450Z,1.63
2022-11-22T20:54:55.359Z,1.30
2022-11-22T20:57:28.105Z,1.67
2022-11-22T20:59:58.164Z,0.87
2022-11-22T21:02:43.283Z,1.37
2022-11-22T21:05:12.181Z,1.50
2022-11-22T21:07:39.578Z,0.90
2022-11-22T21:10:07.733Z,1.13
2022-11-22T21:12:35.138Z,1.30
2022-11-22T21:15:02.789Z,1.23
2022-11-22T21:17:45.701Z,0.70
2022-11-22T21:20:20.053Z,0.53
2022-11-22T21:22:47.566Z,0.63
2022-11-22T21:25:17.547Z,0.87
2022-11-22T21:27:51.272Z,1.10
2022-11-22T21:30:18.737Z,1.23
2022-11-22T21:32:52.226Z,1.27
2022-11-22T21:35:23.154Z,1.03
2022-11-22T21:37:54.316Z,0.47
2022-11-22T21:40:21.772Z,0.47
2022-11-22T21:42:49.363Z,0.50
2022-11-22T21:45:19.991Z,0.73
2022-11-22T21:47:53.376Z,0.40
2022-11-22T21:50:21.265Z,0.47
2022-11-22T21:52:48.642Z,0.60
2022-11-22T21:55:21.898Z,0.73
2022-11-22T21:57:49.264Z,0.90
2022-11-22T22:00:17.511Z,0.87
2022-11-22T22:02:44.980Z,1.80
2022-11-22T22:05:12.452Z,0.80
2022-11-22T22:07:56.444Z,0.90
2022-11-22T22:10:23.980Z,1.40
2022-11-22T22:12:52.235Z,1.47
2022-11-22T22:15:19.705Z,1.13
2022-11-22T22:17:47.167Z,1.10
2022-11-22T22:20:14.650Z,0.90
2022-11-22T22:22:42.082Z,1.10
2022-11-22T22:25:09.897Z,1.07
2022-11-22T22:27:37.321Z,1.73
2022-11-22T22:30:06.259Z,0.57
2022-11-22T22:32:34.852Z,1.67
2022-11-22T22:35:03.808Z,1.20
2022-11-22T22:37:36.603Z,1.50
2022-11-22T22:40:04.313Z,0.83
2022-11-22T22:42:34.353Z,0.87
2022-11-22T22:45:05.872Z,0.43
2022-11-22T22:47:33.164Z,1.00
2022-11-22T22:50:00.526Z,0.87
2022-11-22T22:52:30.341Z,0.50
2022-11-22T22:54:57.832Z,0.70
2022-11-22T22:57:27.573Z,0.60
2022-11-22T23:00:20.356Z,0.50
2022-11-22T23:02:48.956Z,0.30
2022-11-22T23:05:16.267Z,0.60
2022-11-22T23:07:44.114Z,0.77
2022-11-22T23:10:11.578Z,0.70
2022-11-22T23:12:39.300Z,0.67
2022-11-22T23:15:07.164Z,0.53
2022-11-22T23:28:26.355Z,0.20
2022-11-22T23:31:30.969Z,0.40
2022-11-22T23:34:00.225Z,0.50
2022-11-22T23:42:49.103Z,0.50
2022-11-22T23:45:16.645Z,0.40
2022-11-22T23:47:49.423Z,0.30
2022-11-22T23:50:16.888Z,0.37
2022-11-22T23:52:45.924Z,0.20
2022-11-22T23:55:13.346Z,0.40
2022-11-22T23:57:46.090Z,0.27
